createdAt,value
2022-08-28T00:00:08.302Z,7.77
2022-08-28T00:00:45.098Z,9.67
2022-08-28T00:01:19.377Z,8.13
2022-08-28T00:01:51.720Z,8.90
2022-08-28T00:02:26.896Z,8.90
2022-08-28T00:02:59.978Z,7.57
2022-08-28T00:03:32.595Z,8.50
2022-08-28T00:04:07.845Z,8.37
2022-08-28T00:04:40.226Z,8.50
2022-08-28T00:05:16.836Z,8.97
2022-08-28T00:05:51.838Z,8.67
2022-08-28T00:06:24.150Z,9.23
2022-08-28T00:06:56.550Z,9.37
2022-08-28T00:07:31.552Z,8.37
2022-08-28T00:08:04.266Z,8.80
2022-08-28T00:08:36.685Z,8.13
2022-08-28T00:09:12.377Z,8.40
2022-08-28T00:09:45.009Z,8.30
2022-08-28T00:10:19.394Z,7.70
2022-08-28T00:10:57.469Z,7.57
2022-08-28T00:11:29.863Z,7.50
2022-08-28T00:12:02.406Z,7.67
2022-08-28T00:12:35.572Z,7.70
2022-08-28T00:13:15.550Z,8.47
2022-08-28T00:13:48.126Z,7.80
2022-08-28T00:14:23.817Z,7.90
2022-08-28T00:14:56.178Z,7.70
2022-08-28T00:15:30.821Z,8.77
2022-08-28T00:16:06.424Z,7.93
2022-08-28T00:16:38.920Z,7.90
2022-08-28T00:17:11.344Z,7.23
2022-08-28T00:17:46.998Z,6.60
2022-08-28T00:18:19.669Z,8.47
2022-08-28T00:18:54.524Z,7.80
2022-08-28T00:19:27.078Z,7.63
2022-08-28T00:19:59.408Z,9.20
2022-08-28T00:20:38.042Z,7.17
2022-08-28T00:21:10.438Z,8.10
2022-08-28T00:21:43.061Z,8.37
2022-08-28T00:22:18.035Z,8.03
2022-08-28T00:22:51.203Z,8.57
2022-08-28T00:23:25.465Z,7.73
2022-08-28T00:24:11.940Z,7.80
2022-08-28T00:24:44.788Z,8.13
2022-08-28T00:25:19.874Z,7.97
2022-08-28T00:25:55.230Z,8.47
2022-08-28T00:26:42.563Z,8.33
2022-08-28T00:27:29.845Z,9.03
2022-08-28T00:28:05.498Z,8.23
2022-08-28T00:28:41.388Z,7.67
2022-08-28T00:29:13.738Z,7.67
2022-08-28T00:29:48.722Z,8.60
2022-08-28T00:30:23.674Z,7.97
2022-08-28T00:30:59.109Z,8.20
2022-08-28T00:31:34.328Z,8.53
2022-08-28T00:32:08.969Z,9.20
2022-08-28T00:32:41.270Z,8.40
2022-08-28T00:33:22.538Z,7.87
2022-08-28T00:33:54.895Z,7.23
2022-08-28T00:34:33.285Z,8.20
2022-08-28T00:35:06.852Z,7.40
2022-08-28T00:35:45.053Z,7.90
2022-08-28T00:36:17.505Z,7.83
2022-08-28T00:36:49.923Z,7.63
2022-08-28T00:37:26.483Z,7.83
2022-08-28T00:37:59.473Z,7.57
2022-08-28T00:38:32.568Z,7.40
2022-08-28T00:39:08.207Z,8.33
2022-08-28T00:39:40.590Z,8.27
2022-08-28T00:40:15.954Z,7.43
2022-08-28T00:40:53.778Z,7.50
2022-08-28T00:41:27.620Z,7.53
2022-08-28T00:42:00.664Z,7.63
2022-08-28T00:42:34.407Z,7.37
2022-08-28T00:43:10.533Z,7.87
2022-08-28T00:43:44.620Z,8.17
2022-08-28T00:44:20.241Z,7.70
2022-08-28T00:44:55.201Z,7.70
2022-08-28T00:45:28.325Z,8.00
2022-08-28T00:46:01.080Z,7.57
2022-08-28T00:46:36.029Z,8.50
2022-08-28T00:47:08.781Z,7.97
2022-08-28T00:47:41.166Z,6.73
2022-08-28T00:48:16.113Z,4.57
2022-08-28T00:48:48.751Z,4.50
2022-08-28T00:49:24.106Z,4.80
2022-08-28T00:49:59.281Z,4.70
2022-08-28T00:50:54.538Z,4.40
2022-08-28T00:51:52.080Z,4.93
2022-08-28T00:52:25.385Z,4.10
2022-08-28T00:53:00.370Z,4.93
2022-08-28T00:53:33.280Z,5.07
2022-08-28T00:54:09.671Z,4.80
2022-08-28T00:54:56.816Z,4.10
2022-08-28T00:55:33.912Z,5.17
2022-08-28T00:56:12.813Z,3.90
2022-08-28T00:56:47.712Z,3.37
2022-08-28T00:57:29.842Z,3.20
2022-08-28T00:58:02.221Z,4.00
2022-08-28T00:58:37.405Z,3.73
2022-08-28T00:59:15.692Z,3.90
2022-08-28T00:59:48.121Z,3.77
2022-08-28T01:00:29.524Z,4.37
2022-08-28T01:01:01.805Z,3.87
2022-08-28T01:01:34.231Z,3.73
2022-08-28T01:02:10.603Z,3.27
2022-08-28T01:02:44.246Z,3.47
2022-08-28T01:03:17.038Z,3.47
2022-08-28T01:03:52.123Z,2.90
2022-08-28T01:04:26.165Z,3.30
2022-08-28T01:04:58.478Z,3.03
2022-08-28T01:05:33.913Z,2.90
2022-08-28T01:06:07.481Z,3.13
2022-08-28T01:06:42.502Z,2.90
2022-08-28T01:07:17.930Z,3.13
2022-08-28T01:07:52.047Z,3.03
2022-08-28T01:08:24.446Z,2.67
2022-08-28T01:08:56.925Z,2.63
2022-08-28T01:09:35.038Z,2.67
2022-08-28T01:10:11.348Z,3.40
2022-08-28T01:10:46.088Z,2.80
2022-08-28T01:11:22.175Z,3.40
2022-08-28T01:11:57.512Z,2.87
2022-08-28T01:12:31.378Z,2.80
2022-08-28T01:13:06.738Z,3.00
2022-08-28T01:13:41.222Z,3.20
2022-08-28T01:14:15.272Z,3.13
2022-08-28T01:14:52.867Z,3.13
2022-08-28T01:15:28.533Z,3.43
2022-08-28T01:16:03.003Z,3.60
2022-08-28T01:16:38.470Z,3.57
2022-08-28T01:17:11.423Z,3.50
2022-08-28T01:17:47.549Z,4.07
2022-08-28T01:18:23.244Z,3.90
2022-08-28T01:18:57.588Z,3.80
2022-08-28T01:19:32.774Z,4.07
2022-08-28T01:20:11.208Z,4.00
2022-08-28T01:20:48.682Z,3.80
2022-08-28T01:21:26.441Z,4.33
2022-08-28T01:22:12.788Z,4.63
2022-08-28T01:22:51.645Z,4.50
2022-08-28T01:23:36.856Z,4.70
2022-08-28T01:24:14.917Z,5.80
2022-08-28T01:24:47.722Z,5.23
2022-08-28T01:25:24.833Z,5.60
2022-08-28T01:25:58.510Z,5.60
2022-08-28T01:26:31.765Z,5.00
2022-08-28T01:27:07.106Z,5.43
2022-08-28T01:27:42.084Z,5.93
2022-08-28T01:28:14.973Z,5.40
2022-08-28T01:28:50.155Z,5.20
2022-08-28T01:29:23.299Z,5.73
2022-08-28T01:29:56.241Z,5.13
2022-08-28T01:30:33.271Z,5.00
2022-08-28T01:31:05.689Z,5.40
2022-08-28T01:31:39.550Z,5.40
2022-08-28T01:32:14.637Z,4.60
2022-08-28T01:32:49.954Z,5.60
2022-08-28T01:33:24.320Z,6.10
2022-08-28T01:34:03.709Z,6.40
2022-08-28T01:34:36.213Z,4.90
2022-08-28T01:35:12.684Z,5.40
2022-08-28T01:35:50.606Z,5.63
2022-08-28T01:36:22.936Z,6.23
2022-08-28T01:36:55.242Z,6.03
2022-08-28T01:37:33.517Z,5.90
2022-08-28T01:38:05.978Z,5.90
2022-08-28T01:38:38.820Z,5.50
2022-08-28T01:39:18.413Z,5.73
2022-08-28T01:39:50.742Z,5.80
2022-08-28T01:40:26.528Z,5.90
2022-08-28T01:40:59.546Z,6.00
2022-08-28T01:41:35.606Z,5.70
2022-08-28T01:42:07.975Z,6.90
2022-08-28T01:42:41.566Z,6.63
2022-08-28T01:43:19.214Z,6.67
2022-08-28T01:43:51.585Z,6.13
2022-08-28T01:44:25.947Z,6.40
2022-08-28T01:45:00.847Z,6.00
2022-08-28T01:45:33.206Z,6.57
2022-08-28T01:46:06.714Z,6.97
2022-08-28T01:46:44.229Z,6.27
2022-08-28T01:47:16.787Z,6.00
2022-08-28T01:47:49.153Z,7.27
2022-08-28T01:48:28.335Z,7.30
2022-08-28T01:49:01.662Z,7.50
2022-08-28T01:49:37.575Z,7.37
2022-08-28T01:50:11.756Z,6.80
2022-08-28T01:50:45.330Z,6.50
2022-08-28T01:51:24.372Z,6.27
2022-08-28T01:51:58.301Z,6.67
2022-08-28T01:52:31.543Z,6.57
2022-08-28T01:53:07.816Z,6.70
2022-08-28T01:53:46.581Z,6.70
2022-08-28T01:54:24.974Z,7.27
2022-08-28T01:54:57.681Z,6.43
2022-08-28T01:55:30.474Z,7.10
2022-08-28T01:56:08.158Z,6.87
2022-08-28T01:56:43.056Z,7.37
2022-08-28T01:57:15.498Z,7.70
2022-08-28T01:57:54.330Z,7.70
2022-08-28T01:58:27.713Z,7.87
2022-08-28T01:59:03.623Z,7.20
2022-08-28T01:59:38.565Z,7.57
2022-08-28T02:00:14.874Z,7.00
2022-08-28T02:00:47.238Z,7.23
2022-08-28T02:01:24.672Z,6.90
2022-08-28T02:01:57.133Z,6.43
2022-08-28T02:02:32.062Z,6.17
2022-08-28T02:03:04.434Z,6.43
2022-08-28T02:03:37.006Z,6.70
2022-08-28T02:04:12.428Z,5.90
2022-08-28T02:04:48.048Z,5.27
2022-08-28T02:05:20.823Z,6.20
2022-08-28T02:05:55.759Z,7.40
2022-08-28T02:06:28.113Z,6.90
2022-08-28T02:07:00.626Z,5.93
2022-08-28T02:07:35.594Z,7.37
2022-08-28T02:08:08.671Z,6.60
2022-08-28T02:08:41.333Z,6.67
2022-08-28T02:09:16.266Z,6.43
2022-08-28T02:09:51.828Z,6.50
2022-08-28T02:10:25.695Z,7.00
2022-08-28T02:11:02.362Z,7.00
2022-08-28T02:11:35.174Z,6.70
2022-08-28T02:12:07.782Z,6.97
2022-08-28T02:12:43.957Z,6.23
2022-08-28T02:13:16.770Z,6.77
2022-08-28T02:13:50.842Z,6.60
2022-08-28T02:14:25.794Z,8.10
2022-08-28T02:14:58.066Z,6.20
2022-08-28T02:15:31.773Z,6.73
2022-08-28T02:16:05.015Z,6.47
2022-08-28T02:16:40.049Z,6.17
2022-08-28T02:17:12.400Z,7.17
2022-08-28T02:17:44.827Z,6.50
2022-08-28T02:18:19.905Z,6.30
2022-08-28T02:18:52.578Z,6.63
2022-08-28T02:19:24.941Z,6.37
2022-08-28T02:20:00.136Z,6.97
2022-08-28T02:20:34.062Z,6.23
2022-08-28T02:21:06.766Z,6.30
2022-08-28T02:21:41.770Z,6.33
2022-08-28T02:22:14.081Z,6.00
2022-08-28T02:22:46.599Z,6.53
2022-08-28T02:23:19.578Z,5.90
2022-08-28T02:23:54.911Z,6.57
2022-08-28T02:24:27.287Z,6.03
2022-08-28T02:25:04.211Z,6.67
2022-08-28T02:25:39.613Z,5.73
2022-08-28T02:26:13.445Z,6.40
2022-08-28T02:26:45.932Z,6.00
2022-08-28T02:27:21.019Z,5.80
2022-08-28T02:27:53.605Z,5.70
2022-08-28T02:28:25.946Z,5.30
2022-08-28T02:29:01.527Z,5.60
2022-08-28T02:29:33.824Z,5.50
2022-08-28T02:30:08.323Z,5.57
2022-08-28T02:30:43.415Z,5.30
2022-08-28T02:31:15.860Z,5.70
2022-08-28T02:31:48.253Z,5.23
2022-08-28T02:32:23.418Z,5.90
2022-08-28T02:32:55.881Z,5.80
2022-08-28T02:33:28.345Z,5.43
2022-08-28T02:34:03.292Z,5.47
2022-08-28T02:34:36.422Z,5.70
2022-08-28T02:35:12.072Z,5.10
2022-08-28T02:35:44.634Z,5.07
2022-08-28T02:36:20.150Z,5.30
2022-08-28T02:36:53.069Z,4.77
2022-08-28T02:37:25.404Z,5.70
2022-08-28T02:38:01.125Z,5.70
2022-08-28T02:38:33.447Z,5.03
2022-08-28T02:39:05.847Z,5.57
2022-08-28T02:39:40.804Z,5.40
2022-08-28T02:40:16.875Z,5.90
2022-08-28T02:40:49.291Z,4.70
2022-08-28T02:41:24.297Z,5.03
2022-08-28T02:41:56.659Z,4.83
2022-08-28T02:42:29.578Z,5.30
2022-08-28T02:43:04.525Z,5.80
2022-08-28T02:43:36.806Z,5.50
2022-08-28T02:44:09.600Z,5.30
2022-08-28T02:44:44.992Z,5.20
2022-08-28T02:45:18.805Z,5.40
2022-08-28T02:45:51.222Z,5.07
2022-08-28T02:46:26.798Z,5.10
2022-08-28T02:46:59.198Z,5.43
2022-08-28T02:47:32.020Z,4.97
2022-08-28T02:48:12.021Z,5.40
2022-08-28T02:48:50.460Z,5.20
2022-08-28T02:49:23.170Z,5.47
2022-08-28T02:49:58.222Z,4.90
2022-08-28T02:50:31.602Z,5.40
2022-08-28T02:51:06.826Z,5.00
2022-08-28T02:51:41.949Z,5.53
2022-08-28T02:52:14.333Z,5.90
2022-08-28T02:52:47.035Z,5.20
2022-08-28T02:53:22.692Z,5.90
2022-08-28T02:53:55.081Z,6.00
2022-08-28T02:54:27.597Z,5.40
2022-08-28T02:55:02.458Z,5.20
2022-08-28T02:55:37.418Z,5.13
2022-08-28T02:56:12.933Z,5.83
2022-08-28T02:56:45.666Z,5.40
2022-08-28T02:57:18.002Z,5.50
2022-08-28T02:57:54.739Z,5.37
2022-08-28T02:58:27.422Z,5.83
2022-08-28T02:58:59.754Z,5.60
2022-08-28T02:59:35.445Z,5.43
2022-08-28T03:00:11.829Z,5.83
2022-08-28T03:00:44.590Z,6.53
2022-08-28T03:01:19.610Z,6.00
2022-08-28T03:01:52.096Z,6.83
2022-08-28T03:02:24.590Z,6.47
2022-08-28T03:03:00.896Z,5.80
2022-08-28T03:03:33.842Z,6.63
2022-08-28T03:04:07.351Z,7.07
2022-08-28T03:04:42.357Z,6.50
2022-08-28T03:05:17.717Z,7.00
2022-08-28T03:05:50.090Z,6.20
2022-08-28T03:06:25.703Z,6.80
2022-08-28T03:06:58.127Z,7.10
2022-08-28T03:07:30.567Z,7.27
2022-08-28T03:08:06.258Z,6.60
2022-08-28T03:08:39.225Z,7.73
2022-08-28T03:09:11.589Z,7.23
2022-08-28T03:09:46.545Z,7.30
2022-08-28T03:10:19.057Z,7.73
2022-08-28T03:10:56.614Z,7.70
2022-08-28T03:11:29.019Z,7.20
2022-08-28T03:12:01.422Z,6.60
2022-08-28T03:12:36.682Z,7.77
2022-08-28T03:13:09.011Z,6.50
2022-08-28T03:13:42.482Z,6.43
2022-08-28T03:14:17.457Z,7.50
2022-08-28T03:14:49.862Z,7.00
2022-08-28T03:15:22.555Z,7.60
2022-08-28T03:15:58.281Z,7.90
2022-08-28T03:16:31.010Z,7.60
2022-08-28T03:17:03.726Z,6.83
2022-08-28T03:17:39.619Z,6.63
2022-08-28T03:18:15.217Z,7.27
2022-08-28T03:18:48.228Z,8.17
2022-08-28T03:19:24.611Z,6.97
2022-08-28T03:19:59.177Z,7.77
2022-08-28T03:20:31.610Z,7.27
2022-08-28T03:21:07.210Z,7.20
2022-08-28T03:21:39.694Z,7.53
2022-08-28T03:22:12.404Z,7.70
2022-08-28T03:22:59.774Z,6.53
2022-08-28T03:23:34.997Z,6.17
2022-08-28T03:24:07.472Z,7.90
2022-08-28T03:24:39.853Z,6.90
2022-08-28T03:25:12.824Z,7.37
2022-08-28T03:25:45.341Z,7.90
2022-08-28T03:26:24.253Z,7.33
2022-08-28T03:26:56.598Z,7.10
2022-08-28T03:27:28.879Z,7.23
2022-08-28T03:28:01.133Z,6.40
2022-08-28T03:28:39.206Z,6.87
2022-08-28T03:29:11.528Z,7.67
2022-08-28T03:29:43.834Z,7.67
2022-08-28T03:30:16.571Z,7.87
2022-08-28T03:30:51.571Z,7.20
2022-08-28T03:31:26.465Z,7.20
2022-08-28T03:31:59.626Z,7.50
2022-08-28T03:32:34.613Z,7.53
2022-08-28T03:33:06.921Z,7.50
2022-08-28T03:33:42.518Z,7.30
2022-08-28T03:34:15.285Z,7.23
2022-08-28T03:34:47.614Z,7.63
2022-08-28T03:35:23.474Z,8.47
2022-08-28T03:35:55.877Z,8.40
2022-08-28T03:36:32.185Z,7.67
2022-08-28T03:37:04.716Z,7.53
2022-08-28T03:37:37.070Z,8.30
2022-08-28T03:38:12.236Z,7.93
2022-08-28T03:38:44.718Z,9.23
2022-08-28T03:39:17.885Z,8.80
2022-08-28T03:39:53.068Z,8.67
2022-08-28T03:40:25.631Z,8.63
2022-08-28T03:41:01.389Z,8.23
2022-08-28T03:41:37.028Z,9.13
2022-08-28T03:42:09.318Z,8.40
2022-08-28T03:42:53.406Z,9.13
2022-08-28T03:43:26.085Z,8.37
2022-08-28T03:43:59.401Z,7.83
2022-08-28T03:44:34.434Z,8.70
2022-08-28T03:45:10.218Z,8.47
2022-08-28T03:45:52.188Z,8.30
2022-08-28T03:46:28.816Z,8.90
2022-08-28T03:47:01.680Z,8.43
2022-08-28T03:47:36.266Z,9.10
2022-08-28T03:48:11.837Z,9.57
2022-08-28T03:48:46.365Z,8.00
2022-08-28T03:49:21.333Z,9.47
2022-08-28T03:49:55.849Z,8.47
2022-08-28T03:50:28.504Z,8.60
2022-08-28T03:51:04.758Z,9.43
2022-08-28T03:51:37.539Z,9.30
2022-08-28T03:52:09.903Z,9.40
2022-08-28T03:52:44.861Z,9.10
2022-08-28T03:53:17.150Z,10.00
2022-08-28T03:53:49.833Z,8.43
2022-08-28T03:54:25.202Z,10.00
2022-08-28T03:54:57.735Z,8.70
2022-08-28T03:55:30.452Z,8.93
2022-08-28T03:56:08.569Z,8.73
2022-08-28T03:56:43.569Z,8.77
2022-08-28T03:57:18.766Z,8.63
2022-08-28T03:57:54.053Z,9.30
2022-08-28T03:58:27.097Z,9.03
2022-08-28T03:59:03.532Z,9.23
2022-08-28T03:59:35.909Z,8.70
2022-08-28T04:00:11.750Z,9.37
2022-08-28T04:00:50.461Z,9.67
2022-08-28T04:01:23.209Z,9.03
2022-08-28T04:01:55.580Z,10.70
2022-08-28T04:02:31.535Z,9.40
2022-08-28T04:03:04.733Z,10.70
2022-08-28T04:03:37.334Z,9.80
2022-08-28T04:04:12.373Z,9.90
2022-08-28T04:04:44.690Z,9.70
2022-08-28T04:05:17.709Z,10.73
2022-08-28T04:05:52.973Z,9.47
2022-08-28T04:06:25.512Z,10.43
2022-08-28T04:06:57.843Z,9.33
2022-08-28T04:07:32.761Z,10.50
2022-08-28T04:08:05.874Z,9.30
2022-08-28T04:08:38.789Z,9.07
2022-08-28T04:09:13.717Z,9.43
2022-08-28T04:09:46.166Z,10.10
2022-08-28T04:10:21.273Z,10.27
2022-08-28T04:10:55.057Z,9.73
2022-08-28T04:11:27.784Z,9.70
2022-08-28T04:12:05.559Z,10.53
2022-08-28T04:12:37.849Z,9.93
2022-08-28T04:13:10.806Z,10.47
2022-08-28T04:13:45.759Z,10.23
2022-08-28T04:14:18.114Z,9.47
2022-08-28T04:14:50.570Z,9.97
2022-08-28T04:15:25.561Z,10.10
2022-08-28T04:15:58.735Z,10.33
2022-08-28T04:16:31.650Z,10.63
2022-08-28T04:17:06.965Z,11.00
2022-08-28T04:17:40.087Z,10.73
2022-08-28T04:18:15.926Z,11.23
2022-08-28T04:18:49.661Z,10.93
2022-08-28T04:19:22.057Z,10.87
2022-08-28T04:19:57.183Z,10.20
2022-08-28T04:20:29.623Z,10.57
2022-08-28T04:21:04.007Z,10.03
2022-08-28T04:21:39.965Z,10.23
2022-08-28T04:22:12.271Z,9.70
2022-08-28T04:22:47.630Z,9.40
2022-08-28T04:23:19.919Z,10.30
2022-08-28T04:23:52.827Z,11.30
2022-08-28T04:24:27.873Z,9.80
2022-08-28T04:25:00.499Z,9.97
2022-08-28T04:25:32.878Z,10.50
2022-08-28T04:26:08.637Z,11.47
2022-08-28T04:26:41.138Z,11.63
2022-08-28T04:27:16.289Z,10.60
2022-08-28T04:27:51.527Z,10.60
2022-08-28T04:28:24.222Z,11.50
2022-08-28T04:28:56.925Z,11.67
2022-08-28T04:29:32.181Z,11.30
2022-08-28T04:30:06.326Z,11.90
2022-08-28T04:30:41.438Z,10.97
2022-08-28T04:31:17.844Z,10.73
2022-08-28T04:31:50.590Z,11.57
2022-08-28T04:32:23.797Z,11.10
2022-08-28T04:32:59.583Z,11.53
2022-08-28T04:33:31.914Z,11.03
2022-08-28T04:34:06.384Z,11.07
2022-08-28T04:34:41.575Z,11.73
2022-08-28T04:35:15.047Z,11.37
2022-08-28T04:35:47.630Z,11.60
2022-08-28T04:36:23.033Z,12.40
2022-08-28T04:36:55.374Z,11.27
2022-08-28T04:37:30.637Z,11.30
2022-08-28T04:38:05.636Z,10.97
2022-08-28T04:38:42.973Z,11.30
2022-08-28T04:39:18.774Z,11.40
2022-08-28T04:39:51.121Z,11.63
2022-08-28T04:40:24.589Z,12.20
2022-08-28T04:40:59.910Z,12.00
2022-08-28T04:41:32.502Z,12.33
2022-08-28T04:42:05.341Z,11.10
2022-08-28T04:42:45.127Z,12.87
2022-08-28T04:43:17.576Z,11.47
2022-08-28T04:43:52.818Z,12.23
2022-08-28T04:44:27.867Z,11.40
2022-08-28T04:45:00.197Z,11.73
2022-08-28T04:45:32.713Z,12.50
2022-08-28T04:46:09.677Z,11.80
2022-08-28T04:46:42.081Z,12.03
2022-08-28T04:47:14.410Z,10.97
2022-08-28T04:47:49.489Z,10.73
2022-08-28T04:48:21.820Z,12.80
2022-08-28T04:48:54.158Z,11.10
2022-08-28T04:49:29.133Z,11.23
2022-08-28T04:50:01.528Z,12.07
2022-08-28T04:50:33.945Z,11.77
2022-08-28T04:51:11.914Z,11.03
2022-08-28T04:51:44.240Z,10.97
2022-08-28T04:52:19.445Z,11.70
2022-08-28T04:52:55.005Z,11.13
2022-08-28T04:53:27.373Z,11.43
2022-08-28T04:53:59.886Z,11.73
2022-08-28T04:54:35.574Z,11.70
2022-08-28T04:55:09.147Z,11.87
2022-08-28T04:55:54.410Z,12.47
2022-08-28T04:56:30.197Z,11.20
2022-08-28T04:57:02.878Z,12.47
2022-08-28T04:57:41.374Z,11.03
2022-08-28T04:58:16.519Z,12.13
2022-08-28T04:58:48.825Z,12.00
2022-08-28T04:59:21.172Z,11.80
2022-08-28T04:59:56.274Z,11.63
2022-08-28T05:00:28.634Z,11.70
2022-08-28T05:01:06.206Z,11.70
2022-08-28T05:01:42.689Z,10.87
2022-08-28T05:02:15.067Z,11.87
2022-08-28T05:02:47.399Z,12.50
2022-08-28T05:03:19.768Z,11.13
2022-08-28T05:03:57.782Z,12.37
2022-08-28T05:04:30.205Z,12.00
2022-08-28T05:05:03.384Z,11.40
2022-08-28T05:05:41.597Z,11.30
2022-08-28T05:06:17.993Z,12.53
2022-08-28T05:06:50.373Z,11.50
2022-08-28T05:07:22.721Z,11.47
2022-08-28T05:07:57.954Z,11.07
2022-08-28T05:08:30.314Z,11.07
2022-08-28T05:09:04.185Z,11.00
2022-08-28T05:09:39.109Z,12.07
2022-08-28T05:10:11.423Z,12.10
2022-08-28T05:10:44.286Z,10.10
2022-08-28T05:11:32.739Z,11.80
2022-08-28T05:12:09.162Z,11.00
2022-08-28T05:12:44.414Z,11.90
2022-08-28T05:13:17.230Z,10.53
2022-08-28T05:13:52.925Z,10.40
2022-08-28T05:14:27.629Z,10.97
2022-08-28T05:15:02.581Z,11.27
2022-08-28T05:15:38.654Z,10.77
2022-08-28T05:16:11.207Z,10.80
2022-08-28T05:16:51.362Z,11.23
2022-08-28T05:17:23.710Z,11.63
2022-08-28T05:17:59.493Z,12.60
2022-08-28T05:18:34.591Z,12.00
2022-08-28T05:19:06.878Z,12.33
2022-08-28T05:19:39.213Z,11.57
2022-08-28T05:20:14.774Z,11.10
2022-08-28T05:20:48.502Z,11.10
2022-08-28T05:21:23.062Z,11.23
2022-08-28T05:21:58.458Z,11.73
2022-08-28T05:22:31.269Z,10.50
2022-08-28T05:23:03.873Z,11.17
2022-08-28T05:23:36.206Z,10.70
2022-08-28T05:24:11.599Z,11.73
2022-08-28T05:24:44.421Z,11.40
2022-08-28T05:25:16.836Z,10.87
2022-08-28T05:25:50.678Z,11.57
2022-08-28T05:26:27.017Z,11.30
2022-08-28T05:27:00.786Z,10.90
2022-08-28T05:27:33.100Z,10.83
2022-08-28T05:28:11.974Z,11.37
2022-08-28T05:28:44.982Z,10.87
2022-08-28T05:29:17.404Z,10.50
2022-08-28T05:29:55.516Z,11.23
2022-08-28T05:30:30.783Z,11.00
2022-08-28T05:31:09.416Z,11.90
2022-08-28T05:31:44.634Z,11.27
2022-08-28T05:32:19.065Z,11.30
2022-08-28T05:32:51.437Z,11.40
2022-08-28T05:33:26.365Z,11.30
2022-08-28T05:34:00.081Z,11.07
2022-08-28T05:34:32.414Z,10.93
2022-08-28T05:35:08.589Z,11.70
2022-08-28T05:35:43.120Z,10.10
2022-08-28T05:36:15.956Z,10.00
2022-08-28T05:36:50.922Z,12.17
2022-08-28T05:37:23.282Z,11.80
2022-08-28T05:37:55.646Z,12.87
2022-08-28T05:38:30.530Z,13.57
2022-08-28T05:39:05.254Z,13.43
2022-08-28T05:39:37.646Z,12.73
2022-08-28T05:40:13.642Z,12.67
2022-08-28T05:40:48.004Z,11.70
2022-08-28T05:41:20.989Z,12.40
2022-08-28T05:41:56.244Z,11.17
2022-08-28T05:42:30.744Z,13.43
2022-08-28T05:43:04.187Z,12.93
2022-08-28T05:43:41.741Z,12.23
2022-08-28T05:44:15.549Z,11.33
2022-08-28T05:44:47.943Z,11.27
2022-08-28T05:45:29.587Z,11.83
2022-08-28T05:46:03.701Z,11.63
2022-08-28T05:46:42.653Z,11.93
2022-08-28T05:47:15.375Z,10.43
2022-08-28T05:47:47.676Z,11.93
2022-08-28T05:48:22.616Z,12.20
2022-08-28T05:48:55.571Z,11.50
2022-08-28T05:49:30.751Z,11.17
2022-08-28T05:50:03.643Z,11.80
2022-08-28T05:50:38.486Z,11.87
2022-08-28T05:51:16.337Z,11.90
2022-08-28T05:51:49.479Z,11.23
2022-08-28T05:52:21.987Z,11.20
2022-08-28T05:52:56.926Z,10.30
2022-08-28T05:53:29.229Z,9.47
2022-08-28T05:54:02.282Z,9.80
2022-08-28T05:54:37.174Z,10.50
2022-08-28T05:55:12.255Z,9.20
2022-08-28T05:55:45.093Z,9.30
2022-08-28T05:56:31.377Z,8.33
2022-08-28T05:57:04.474Z,7.60
2022-08-28T05:57:36.847Z,8.43
2022-08-28T05:58:23.957Z,7.97
2022-08-28T05:59:02.598Z,7.53
2022-08-28T05:59:34.990Z,7.93
2022-08-28T06:00:13.926Z,7.57
2022-08-28T06:00:46.233Z,7.67
2022-08-28T06:01:21.034Z,6.80
2022-08-28T06:01:56.045Z,7.47
2022-08-28T06:02:29.170Z,7.33
2022-08-28T06:03:01.487Z,7.20
2022-08-28T06:03:33.887Z,7.10
2022-08-28T06:04:11.355Z,7.37
2022-08-28T06:04:43.720Z,7.70
2022-08-28T06:05:16.365Z,7.43
2022-08-28T06:05:57.625Z,8.20
2022-08-28T06:06:34.292Z,7.67
2022-08-28T06:07:12.207Z,7.77
2022-08-28T06:07:44.545Z,6.97
2022-08-28T06:08:16.963Z,7.70
2022-08-28T06:08:56.349Z,7.40
2022-08-28T06:09:31.803Z,7.77
2022-08-28T06:10:07.606Z,8.20
2022-08-28T06:10:44.146Z,6.60
2022-08-28T06:11:20.374Z,7.13
2022-08-28T06:11:58.859Z,7.13
2022-08-28T06:12:31.738Z,7.80
2022-08-28T06:13:04.283Z,6.77
2022-08-28T06:13:39.632Z,8.47
2022-08-28T06:14:17.963Z,8.00
2022-08-28T06:14:50.612Z,7.60
2022-08-28T06:15:27.042Z,7.27
2022-08-28T06:15:59.443Z,7.93
2022-08-28T06:16:35.708Z,7.07
2022-08-28T06:17:08.433Z,7.13
2022-08-28T06:17:43.421Z,6.70
2022-08-28T06:18:16.529Z,6.33
2022-08-28T06:18:51.622Z,6.47
2022-08-28T06:19:25.349Z,5.23
2022-08-28T06:20:00.213Z,5.50
2022-08-28T06:20:37.422Z,5.63
2022-08-28T06:21:09.733Z,6.20
2022-08-28T06:21:44.898Z,6.10
2022-08-28T06:22:17.273Z,5.90
2022-08-28T06:22:50.710Z,6.03
2022-08-28T06:23:26.102Z,6.27
2022-08-28T06:23:58.446Z,6.87
2022-08-28T06:24:34.086Z,6.17
2022-08-28T06:25:08.182Z,6.50
2022-08-28T06:25:41.578Z,6.20
2022-08-28T06:26:18.952Z,6.17
2022-08-28T06:26:52.714Z,6.00
2022-08-28T06:27:30.102Z,6.40
2022-08-28T06:28:05.346Z,5.97
2022-08-28T06:28:37.659Z,6.80
2022-08-28T06:29:21.189Z,6.10
2022-08-28T06:29:54.626Z,6.07
2022-08-28T06:30:26.979Z,6.50
2022-08-28T06:31:26.466Z,6.40
2022-08-28T06:32:05.017Z,6.20
2022-08-28T06:32:37.437Z,6.60
2022-08-28T06:33:13.218Z,5.80
2022-08-28T06:33:46.296Z,6.40
2022-08-28T06:34:21.405Z,6.47
2022-08-28T06:34:54.083Z,6.40
2022-08-28T06:35:26.427Z,6.47
2022-08-28T06:36:01.649Z,6.73
2022-08-28T06:36:37.350Z,6.73
2022-08-28T06:37:10.440Z,6.47
2022-08-28T06:37:45.357Z,6.20
2022-08-28T06:38:18.763Z,7.00
2022-08-28T06:38:51.393Z,6.77
2022-08-28T06:39:26.594Z,7.27
2022-08-28T06:39:59.029Z,7.20
2022-08-28T06:40:31.454Z,7.23
2022-08-28T06:41:11.031Z,6.87
2022-08-28T06:41:43.843Z,7.87
2022-08-28T06:42:16.299Z,8.37
2022-08-28T06:42:51.376Z,11.97
2022-08-28T06:43:25.648Z,10.83
2022-08-28T06:43:58.319Z,9.43
2022-08-28T06:44:37.582Z,7.63
2022-08-28T06:45:12.505Z,8.77
2022-08-28T06:45:46.478Z,8.20
2022-08-28T06:46:21.935Z,7.70
2022-08-28T06:46:54.989Z,7.90
2022-08-28T06:47:30.009Z,6.43
2022-08-28T06:48:02.797Z,7.17
2022-08-28T06:48:37.970Z,7.20
2022-08-28T06:49:10.481Z,6.90
2022-08-28T06:49:42.801Z,7.60
2022-08-28T06:50:15.094Z,8.20
2022-08-28T06:50:52.625Z,7.90
2022-08-28T06:51:25.243Z,7.77
2022-08-28T06:52:00.217Z,7.40
2022-08-28T06:52:32.581Z,7.33
2022-08-28T06:53:04.907Z,7.27
2022-08-28T06:53:41.066Z,7.70
2022-08-28T06:54:17.255Z,8.43
2022-08-28T06:54:56.285Z,7.90
2022-08-28T06:55:28.650Z,9.20
2022-08-28T06:56:06.658Z,8.20
2022-08-28T06:56:41.761Z,8.40
2022-08-28T06:57:14.167Z,8.37
2022-08-28T06:57:46.548Z,7.70
2022-08-28T06:58:21.461Z,7.93
2022-08-28T06:58:54.903Z,8.10
2022-08-28T06:59:30.373Z,8.50
2022-08-28T07:00:07.163Z,8.27
2022-08-28T07:00:40.513Z,8.87
2022-08-28T07:01:17.678Z,8.80
2022-08-28T07:01:50.185Z,8.50
2022-08-28T07:02:22.795Z,8.37
2022-08-28T07:03:03.477Z,8.33
2022-08-28T07:03:35.877Z,9.40
2022-08-28T07:04:15.187Z,8.80
2022-08-28T07:04:53.762Z,8.80
2022-08-28T07:05:26.289Z,8.67
2022-08-28T07:05:59.463Z,9.03
2022-08-28T07:06:36.080Z,8.77
2022-08-28T07:07:10.565Z,8.63
2022-08-28T07:07:51.647Z,9.13
2022-08-28T07:08:26.855Z,8.43
2022-08-28T07:08:59.210Z,9.30
2022-08-28T07:09:34.162Z,9.47
2022-08-28T07:10:07.445Z,9.10
2022-08-28T07:10:39.961Z,9.93
2022-08-28T07:11:19.204Z,9.20
2022-08-28T07:11:51.654Z,9.70
2022-08-28T07:12:23.997Z,9.57
2022-08-28T07:13:00.489Z,9.67
2022-08-28T07:13:33.924Z,9.20
2022-08-28T07:14:07.364Z,9.80
2022-08-28T07:14:42.261Z,9.80
2022-08-28T07:15:17.351Z,9.87
2022-08-28T07:15:49.872Z,9.00
2022-08-28T07:16:27.743Z,9.00
2022-08-28T07:17:00.138Z,9.10
2022-08-28T07:17:32.733Z,9.13
2022-08-28T07:18:05.219Z,8.53
2022-08-28T07:18:40.317Z,9.07
2022-08-28T07:19:13.361Z,8.50
2022-08-28T07:19:45.667Z,8.73
2022-08-28T07:20:21.031Z,8.03
2022-08-28T07:20:58.179Z,8.27
2022-08-28T07:21:31.269Z,8.47
2022-08-28T07:22:06.409Z,7.80
2022-08-28T07:22:40.993Z,8.47
2022-08-28T07:23:13.350Z,7.63
2022-08-28T07:23:48.413Z,8.17
2022-08-28T07:24:20.736Z,8.43
2022-08-28T07:24:53.855Z,8.20
2022-08-28T07:25:29.502Z,8.67
2022-08-28T07:26:03.914Z,7.27
2022-08-28T07:26:37.012Z,7.70
2022-08-28T07:27:16.972Z,8.10
2022-08-28T07:27:51.183Z,8.40
2022-08-28T07:28:23.878Z,8.33
2022-08-28T07:29:10.016Z,8.27
2022-08-28T07:29:45.971Z,7.60
2022-08-28T07:30:23.755Z,8.37
2022-08-28T07:31:04.580Z,7.90
2022-08-28T07:31:37.947Z,7.27
2022-08-28T07:32:13.372Z,7.67
2022-08-28T07:32:49.291Z,7.10
2022-08-28T07:33:21.635Z,8.10
2022-08-28T07:33:57.663Z,7.80
2022-08-28T07:34:30.167Z,7.50
2022-08-28T07:35:05.135Z,6.57
2022-08-28T07:35:37.714Z,7.17
2022-08-28T07:36:15.608Z,6.80
2022-08-28T07:37:04.187Z,6.40
2022-08-28T07:37:36.598Z,6.73
2022-08-28T07:38:13.393Z,5.60